Terminal Aerodrome Forecast
Issued by NWS Twin Cities, MN

Home | Current Version | Previous Version | Text Only | Print | Product List | Glossary Off
Versions: 1 2 3 4 5 6 7 8 9 10 11 12 13 14 15 16 17 18 19

000
FTUS43 KMPX 241404 AAA
TAFEAU
TAF AMD
KEAU 241404Z 2414/2512 14010KT P6SM SCT015 SCT250
     FM241900 15014G21KT P6SM SCT015 BKN150
     FM242300 13008KT P6SM FEW012 OVC090
     FM250400 12007KT 1 1/2SM -SN BR OVC009
      TEMPO 2505/2509 1/2SM SN VV004
     FM251000 16005KT 3SM -SN BR OVC011=

USA.gov is the U.S. government's official web portal to all federal, state and local government web resources and services.